createdAt,value
2022-08-12T00:00:57.520Z,0.00
2022-08-12T00:02:03.198Z,0.00
2022-08-12T00:02:58.560Z,0.00
2022-08-12T00:03:57.485Z,0.00
2022-08-12T00:04:57.472Z,0.00
2022-08-12T00:06:04.665Z,0.00
2022-08-12T00:06:58.473Z,0.00
2022-08-12T00:07:57.437Z,0.00
2022-08-12T00:08:57.517Z,0.00
2022-08-12T00:09:57.416Z,0.00
2022-08-12T00:10:57.405Z,0.00
2022-08-12T00:11:57.392Z,0.00
2022-08-12T00:12:57.382Z,0.00
2022-08-12T00:13:57.373Z,0.00
2022-08-12T00:14:57.362Z,0.00
2022-08-12T00:15:57.351Z,0.00
2022-08-12T00:16:57.345Z,0.00
2022-08-12T00:17:57.328Z,0.00
2022-08-12T00:18:57.320Z,0.00
2022-08-12T00:19:57.308Z,0.00
2022-08-12T00:20:57.298Z,0.00
2022-08-12T00:21:57.286Z,0.00
2022-08-12T00:22:59.565Z,0.00
2022-08-12T00:23:57.314Z,0.00
2022-08-12T00:24:57.258Z,0.00
2022-08-12T00:26:21.474Z,0.00
2022-08-12T00:26:57.233Z,0.00
2022-08-12T00:27:57.222Z,0.00
2022-08-12T00:28:57.213Z,0.00
2022-08-12T00:29:57.220Z,0.00
2022-08-12T00:30:57.196Z,0.00
2022-08-12T00:31:57.178Z,0.00
2022-08-12T00:32:57.382Z,0.00
2022-08-12T00:33:57.157Z,0.00
2022-08-12T00:34:57.147Z,0.00
2022-08-12T00:35:57.135Z,0.00
2022-08-12T00:37:00.945Z,0.00
2022-08-12T00:37:58.140Z,0.00
2022-08-12T00:38:57.103Z,0.00
2022-08-12T00:39:57.175Z,0.00
2022-08-12T00:40:57.084Z,0.00
2022-08-12T00:41:57.071Z,0.00
2022-08-12T00:42:57.062Z,0.00
2022-08-12T00:43:57.049Z,0.00
2022-08-12T00:44:57.040Z,0.00
2022-08-12T00:45:57.025Z,0.00
2022-08-12T00:46:57.015Z,0.00
2022-08-12T00:47:57.004Z,0.00
2022-08-12T00:48:57.010Z,0.00
2022-08-12T00:49:56.982Z,0.00
2022-08-12T00:50:56.975Z,0.00
2022-08-12T00:51:56.960Z,0.00
2022-08-12T00:52:56.950Z,0.00
2022-08-12T00:53:56.938Z,0.00
2022-08-12T00:54:57.357Z,0.00
2022-08-12T00:55:56.914Z,0.00
2022-08-12T00:56:56.906Z,0.00
2022-08-12T00:57:56.894Z,0.00
2022-08-12T00:58:56.883Z,0.00
2022-08-12T00:59:56.870Z,0.00
2022-08-12T01:00:56.905Z,0.00
2022-08-12T01:02:02.058Z,0.00
2022-08-12T01:02:57.863Z,0.00
2022-08-12T01:03:56.827Z,0.00
2022-08-12T01:04:56.816Z,0.00
2022-08-12T01:05:56.803Z,0.00
2022-08-12T01:06:56.795Z,0.00
2022-08-12T01:07:56.783Z,0.00
2022-08-12T01:08:56.770Z,0.00
2022-08-12T01:09:56.763Z,0.00
2022-08-12T01:10:56.749Z,0.00
2022-08-12T01:11:56.736Z,0.00
2022-08-12T01:13:18.336Z,0.00
2022-08-12T01:13:56.713Z,0.00
2022-08-12T01:14:56.705Z,0.00
2022-08-12T01:15:56.690Z,0.00
2022-08-12T01:16:56.683Z,0.00
2022-08-12T01:17:56.675Z,0.00
2022-08-12T01:18:56.664Z,0.00
2022-08-12T01:19:56.648Z,0.00
2022-08-12T01:20:56.635Z,0.00
2022-08-12T01:21:56.623Z,0.00
2022-08-12T01:22:56.614Z,0.00
2022-08-12T01:23:56.602Z,0.00
2022-08-12T01:24:56.590Z,0.00
2022-08-12T01:25:56.673Z,0.00
2022-08-12T01:26:56.568Z,0.00
2022-08-12T01:27:56.558Z,0.00
2022-08-12T01:28:57.034Z,0.00
2022-08-12T01:29:56.532Z,0.00
2022-08-12T01:30:56.523Z,0.00
2022-08-12T01:31:56.513Z,0.00
2022-08-12T01:32:56.499Z,0.00
2022-08-12T01:33:56.490Z,0.00
2022-08-12T01:34:56.478Z,0.00
2022-08-12T01:36:07.895Z,0.00
2022-08-12T01:36:56.455Z,0.00
2022-08-12T01:37:56.442Z,0.00
2022-08-12T01:38:56.434Z,0.00
2022-08-12T01:40:35.011Z,0.00
2022-08-12T01:40:57.530Z,0.00
2022-08-12T01:41:56.399Z,0.00
2022-08-12T01:42:56.390Z,0.00
2022-08-12T01:43:56.377Z,0.00
2022-08-12T01:44:56.365Z,0.00
2022-08-12T01:45:57.702Z,0.00
2022-08-12T01:46:56.343Z,0.00
2022-08-12T01:47:56.333Z,0.00
2022-08-12T01:48:56.323Z,0.00
2022-08-12T01:49:56.309Z,0.00
2022-08-12T01:51:00.356Z,0.00
2022-08-12T01:52:21.188Z,0.00
2022-08-12T01:52:56.277Z,0.00
2022-08-12T01:53:56.272Z,0.00
2022-08-12T01:54:56.256Z,0.00
2022-08-12T01:55:56.243Z,0.00
2022-08-12T01:56:56.235Z,0.00
2022-08-12T01:57:59.776Z,0.00
2022-08-12T01:58:56.210Z,0.00
2022-08-12T01:59:56.197Z,0.00
2022-08-12T02:00:56.401Z,0.00
2022-08-12T02:01:56.297Z,0.00
2022-08-12T02:02:56.177Z,0.00
2022-08-12T02:03:56.159Z,0.00
2022-08-12T02:04:56.143Z,0.00
2022-08-12T02:05:56.130Z,0.00
2022-08-12T02:06:56.126Z,0.00
2022-08-12T02:07:56.107Z,0.00
2022-08-12T02:08:56.100Z,0.00
2022-08-12T02:09:56.086Z,0.00
2022-08-12T02:10:56.075Z,0.00
2022-08-12T02:11:56.063Z,0.00
2022-08-12T02:12:56.056Z,0.00
2022-08-12T02:13:56.046Z,0.00
2022-08-12T02:14:56.031Z,0.00
2022-08-12T02:15:56.017Z,0.00
2022-08-12T02:16:56.013Z,0.00
2022-08-12T02:17:56.930Z,0.00
2022-08-12T02:18:55.986Z,0.00
2022-08-12T02:19:55.981Z,0.00
2022-08-12T02:20:55.965Z,0.00
2022-08-12T02:21:55.952Z,0.00
2022-08-12T02:22:55.943Z,0.00
2022-08-12T02:23:55.933Z,0.00
2022-08-12T02:24:55.919Z,0.00
2022-08-12T02:25:55.909Z,0.00
2022-08-12T02:26:55.898Z,0.00
2022-08-12T02:27:55.885Z,0.00
2022-08-12T02:28:55.877Z,0.00
2022-08-12T02:29:55.862Z,0.00
2022-08-12T02:30:55.855Z,0.00
2022-08-12T02:31:55.843Z,0.00
2022-08-12T02:32:56.320Z,0.00
2022-08-12T02:33:55.820Z,0.00
2022-08-12T02:34:55.815Z,0.00
2022-08-12T02:35:55.800Z,0.00
2022-08-12T02:36:55.790Z,0.00
2022-08-12T02:37:55.778Z,0.00
2022-08-12T02:38:55.765Z,0.00
2022-08-12T02:39:55.864Z,0.00
2022-08-12T02:40:55.749Z,0.00
2022-08-12T02:41:55.732Z,0.00
2022-08-12T02:42:55.722Z,0.00
2022-08-12T02:43:55.707Z,0.00
2022-08-12T02:44:55.701Z,0.00
2022-08-12T02:45:55.686Z,0.00
2022-08-12T02:46:55.677Z,0.00
2022-08-12T02:48:00.903Z,0.00
2022-08-12T02:48:55.658Z,0.00
2022-08-12T02:49:55.645Z,0.00
2022-08-12T02:50:55.633Z,0.00
2022-08-12T02:51:55.618Z,0.00
2022-08-12T02:52:55.611Z,0.00
2022-08-12T02:54:03.262Z,0.00
2022-08-12T02:54:55.586Z,0.00
2022-08-12T02:55:55.578Z,0.00
2022-08-12T02:56:55.569Z,0.00
2022-08-12T02:57:55.553Z,0.00
2022-08-12T02:58:55.552Z,0.00
2022-08-12T02:59:55.534Z,0.00
2022-08-12T03:00:55.559Z,0.00
2022-08-12T03:01:55.508Z,0.00
2022-08-12T03:02:55.498Z,0.00
2022-08-12T03:03:55.486Z,0.00
2022-08-12T03:04:55.475Z,0.00
2022-08-12T03:05:55.466Z,0.00
2022-08-12T03:06:55.452Z,0.00
2022-08-12T03:07:59.126Z,0.00
2022-08-12T03:08:55.429Z,0.00
2022-08-12T03:10:04.249Z,0.00
2022-08-12T03:10:55.408Z,0.00
2022-08-12T03:11:55.394Z,0.00
2022-08-12T03:12:55.383Z,0.00
2022-08-12T03:13:55.374Z,0.00
2022-08-12T03:14:55.362Z,0.00
2022-08-12T03:15:55.352Z,4.00
2022-08-12T03:16:55.338Z,4.00
2022-08-12T03:18:25.756Z,0.00
2022-08-12T03:18:56.341Z,0.00
2022-08-12T03:20:09.409Z,4.00
2022-08-12T03:20:55.294Z,4.00
2022-08-12T03:22:08.639Z,0.00
2022-08-12T03:22:55.268Z,4.00
2022-08-12T03:23:55.259Z,4.00
2022-08-12T03:24:55.249Z,8.00
2022-08-12T03:25:55.240Z,4.00
2022-08-12T03:26:55.225Z,8.00
2022-08-12T03:27:55.216Z,8.00
2022-08-12T03:28:55.205Z,8.00
2022-08-12T03:29:55.192Z,12.00
2022-08-12T03:30:56.848Z,12.00
2022-08-12T03:31:55.167Z,16.00
2022-08-12T03:32:55.155Z,20.00
2022-08-12T03:34:00.511Z,24.00
2022-08-12T03:34:55.131Z,24.00
2022-08-12T03:35:55.125Z,28.00
2022-08-12T03:36:55.307Z,32.00
2022-08-12T03:37:55.097Z,36.00
2022-08-12T03:38:55.085Z,40.00
2022-08-12T03:39:55.172Z,48.00
2022-08-12T03:40:55.060Z,56.00
2022-08-12T03:41:55.054Z,64.00
2022-08-12T03:42:55.041Z,72.00
2022-08-12T03:43:55.029Z,84.00
2022-08-12T03:44:55.017Z,96.00
2022-08-12T03:45:55.005Z,104.00
2022-08-12T03:46:54.995Z,120.00
2022-08-12T03:47:54.984Z,136.00
2022-08-12T03:48:54.968Z,152.00
2022-08-12T03:49:54.964Z,164.00
2022-08-12T03:50:54.947Z,188.00
2022-08-12T03:51:54.935Z,204.00
2022-08-12T03:52:54.922Z,228.00
2022-08-12T03:53:54.914Z,252.00
2022-08-12T03:54:54.899Z,276.00
2022-08-12T03:55:54.889Z,304.00
2022-08-12T03:56:54.908Z,328.00
2022-08-12T03:57:54.877Z,360.00
2022-08-12T03:58:54.884Z,388.00
2022-08-12T03:59:54.961Z,424.00
2022-08-12T04:00:55.032Z,456.00
2022-08-12T04:01:54.926Z,492.00
2022-08-12T04:02:54.957Z,528.00
2022-08-12T04:03:54.844Z,568.00
2022-08-12T04:04:54.786Z,608.00
2022-08-12T04:05:56.381Z,652.00
2022-08-12T04:06:54.763Z,696.00
2022-08-12T04:07:58.370Z,736.00
2022-08-12T04:08:54.748Z,784.00
2022-08-12T04:09:54.736Z,832.00
2022-08-12T04:10:54.720Z,884.00
2022-08-12T04:11:54.711Z,932.00
2022-08-12T04:12:54.702Z,980.00
2022-08-12T04:13:54.690Z,1036.00
2022-08-12T04:14:54.677Z,1084.00
2022-08-12T04:15:54.673Z,1136.00
2022-08-12T04:16:54.656Z,1192.00
2022-08-12T04:18:06.627Z,1244.00
2022-08-12T04:18:54.633Z,1296.00
2022-08-12T04:19:54.726Z,1352.00
2022-08-12T04:20:54.617Z,1408.00
2022-08-12T04:22:01.989Z,1464.00
2022-08-12T04:22:54.589Z,1520.00
2022-08-12T04:23:54.581Z,1572.00
2022-08-12T04:24:54.572Z,1624.00
2022-08-12T04:25:54.559Z,1680.00
2022-08-12T04:26:54.546Z,1732.00
2022-08-12T04:27:54.538Z,1784.00
2022-08-12T04:28:54.528Z,1840.00
2022-08-12T04:30:30.842Z,1892.00
2022-08-12T04:30:54.503Z,1944.00
2022-08-12T04:31:54.495Z,1996.00
2022-08-12T04:32:54.481Z,2048.00
2022-08-12T04:33:54.512Z,2100.00
2022-08-12T04:34:54.459Z,2152.00
2022-08-12T04:35:54.449Z,2204.00
2022-08-12T04:36:54.439Z,2256.00
2022-08-12T04:37:58.983Z,2308.00
2022-08-12T04:38:59.525Z,2356.00
2022-08-12T04:39:54.551Z,2404.00
2022-08-12T04:40:54.394Z,2452.00
2022-08-12T04:41:58.546Z,2504.00
2022-08-12T04:42:54.377Z,2552.00
2022-08-12T04:44:02.263Z,2600.00
2022-08-12T04:44:55.374Z,2652.00
2022-08-12T04:45:54.345Z,2704.00
2022-08-12T04:46:54.326Z,2752.00
2022-08-12T04:47:54.317Z,2800.00
2022-08-12T04:48:54.306Z,2844.00
2022-08-12T04:49:54.297Z,2884.00
2022-08-12T04:50:54.280Z,2932.00
2022-08-12T04:51:59.058Z,2972.00
2022-08-12T04:52:54.258Z,3016.00
2022-08-12T04:53:54.258Z,3056.00
2022-08-12T04:54:54.238Z,3104.00
2022-08-12T04:55:54.237Z,3160.00
2022-08-12T04:57:03.701Z,3212.00
2022-08-12T04:57:54.241Z,3256.00
2022-08-12T04:58:54.193Z,3316.00
2022-08-12T04:59:54.194Z,3372.00
2022-08-12T05:00:54.174Z,3436.00
2022-08-12T05:01:54.285Z,3508.00
2022-08-12T05:02:54.283Z,3580.00
2022-08-12T05:03:54.172Z,3656.00
2022-08-12T05:04:54.118Z,3732.00
2022-08-12T05:05:54.120Z,3804.00
2022-08-12T05:06:54.114Z,3876.00
2022-08-12T05:07:55.120Z,3944.00
2022-08-12T05:08:54.124Z,4004.00
2022-08-12T05:10:00.586Z,4064.00
2022-08-12T05:10:55.075Z,4124.00
2022-08-12T05:11:54.623Z,4192.00
2022-08-12T05:12:54.032Z,4680.00
2022-08-12T05:13:54.016Z,5468.00
2022-08-12T05:14:54.004Z,7060.00
2022-08-12T05:16:03.800Z,9000.00
2022-08-12T05:16:53.984Z,9876.00
2022-08-12T05:17:53.976Z,9964.00
2022-08-12T05:18:53.960Z,9812.00
2022-08-12T05:19:54.008Z,9824.00
2022-08-12T05:20:53.942Z,10096.00
2022-08-12T05:21:53.927Z,10492.00
2022-08-12T05:22:58.168Z,10472.00
2022-08-12T05:23:53.905Z,10488.00
2022-08-12T05:24:53.900Z,10528.00
2022-08-12T05:25:53.883Z,10528.00
2022-08-12T05:26:53.869Z,10632.00
2022-08-12T05:27:55.543Z,11024.00
2022-08-12T05:28:53.853Z,11476.00
2022-08-12T05:30:05.361Z,11980.00
2022-08-12T05:30:54.850Z,12512.00
2022-08-12T05:31:53.915Z,12572.00
2022-08-12T05:32:53.921Z,12668.00
2022-08-12T05:33:53.837Z,12936.00
2022-08-12T05:34:53.791Z,12988.00
2022-08-12T05:35:53.767Z,11312.00
2022-08-12T05:36:53.756Z,10744.00
2022-08-12T05:37:53.749Z,10340.00
2022-08-12T05:38:53.742Z,11236.00
2022-08-12T05:39:53.799Z,14216.00
2022-08-12T05:40:53.713Z,15200.00
2022-08-12T05:41:53.704Z,15264.00
2022-08-12T05:42:53.690Z,16096.00
2022-08-12T05:43:53.683Z,14560.00
2022-08-12T05:44:53.701Z,14048.00
2022-08-12T05:45:53.743Z,16416.00
2022-08-12T05:46:53.647Z,16608.00
2022-08-12T05:47:54.389Z,13888.00
2022-08-12T05:48:53.625Z,10276.00
2022-08-12T05:49:53.618Z,6856.00
2022-08-12T05:50:53.601Z,6424.00
2022-08-12T05:51:53.592Z,8008.00
2022-08-12T05:52:53.984Z,9508.00
2022-08-12T05:53:53.569Z,11736.00
2022-08-12T05:54:57.450Z,15300.00
2022-08-12T05:55:53.618Z,18720.00
2022-08-12T05:56:53.563Z,16512.00
2022-08-12T05:57:53.529Z,10148.00
2022-08-12T05:58:53.520Z,6136.00
2022-08-12T05:59:53.508Z,5796.00
2022-08-12T06:00:53.489Z,6492.00
2022-08-12T06:02:12.057Z,5856.00
2022-08-12T06:02:53.538Z,6072.00
2022-08-12T06:03:53.457Z,5968.00
2022-08-12T06:04:53.446Z,5972.00
2022-08-12T06:05:55.294Z,6500.00
2022-08-12T06:06:53.766Z,7360.00
2022-08-12T06:08:01.836Z,6300.00
2022-08-12T06:08:53.402Z,6416.00
2022-08-12T06:09:53.395Z,7696.00
2022-08-12T06:10:53.382Z,6700.00
2022-08-12T06:12:04.117Z,6132.00
2022-08-12T06:12:53.360Z,6320.00
2022-08-12T06:13:54.670Z,6180.00
2022-08-12T06:14:53.340Z,6140.00
2022-08-12T06:15:53.330Z,6264.00
2022-08-12T06:16:53.350Z,6344.00
2022-08-12T06:17:53.343Z,7052.00
2022-08-12T06:18:53.291Z,7136.00
2022-08-12T06:20:27.945Z,6288.00
2022-08-12T06:20:53.895Z,6720.00
2022-08-12T06:21:53.259Z,6284.00
2022-08-12T06:22:55.058Z,6200.00
2022-08-12T06:23:53.240Z,6204.00
2022-08-12T06:24:53.232Z,6400.00
2022-08-12T06:25:53.217Z,6368.00
2022-08-12T06:26:53.203Z,6484.00
2022-08-12T06:28:07.456Z,13368.00
2022-08-12T06:28:54.208Z,18528.00
2022-08-12T06:30:09.766Z,25920.00
2022-08-12T06:31:53.155Z,24000.00
2022-08-12T06:33:11.480Z,15772.00
2022-08-12T06:33:55.225Z,8572.00
2022-08-12T06:35:26.843Z,7780.00
2022-08-12T06:35:57.619Z,6604.00
2022-08-12T06:36:53.097Z,7072.00
2022-08-12T06:37:57.058Z,11816.00
2022-08-12T06:38:53.093Z,13440.00
2022-08-12T06:39:53.089Z,20800.00
2022-08-12T06:40:53.046Z,24352.00
2022-08-12T06:42:27.712Z,20672.00
2022-08-12T06:42:53.027Z,19264.00
2022-08-12T06:44:05.102Z,15772.00
2022-08-12T06:44:53.006Z,8976.00
2022-08-12T06:45:52.995Z,11724.00
2022-08-12T06:46:52.989Z,18656.00
2022-08-12T06:47:52.981Z,23840.00
2022-08-12T06:48:53.031Z,14236.00
2022-08-12T06:49:54.270Z,19744.00
2022-08-12T06:50:52.939Z,28544.00
2022-08-12T06:51:56.944Z,34848.00
2022-08-12T06:52:52.917Z,31488.00
2022-08-12T06:53:52.909Z,21952.00
2022-08-12T06:54:52.891Z,20384.00
2022-08-12T06:55:56.788Z,26816.00
2022-08-12T06:58:04.421Z,25568.00
2022-08-12T06:58:05.629Z,22400.00
2022-08-12T06:58:52.868Z,18880.00
2022-08-12T06:59:52.871Z,9312.00
2022-08-12T07:00:52.885Z,15708.00
2022-08-12T07:01:52.821Z,29728.00
2022-08-12T07:02:52.806Z,42912.00
2022-08-12T07:03:52.796Z,42048.00
2022-08-12T07:04:52.800Z,43136.00
2022-08-12T07:05:52.776Z,43328.00
2022-08-12T07:06:52.764Z,41376.00
2022-08-12T07:07:52.753Z,37312.00
2022-08-12T07:08:52.741Z,41728.00
2022-08-12T07:10:05.528Z,38368.00
2022-08-12T07:10:52.745Z,38304.00
2022-08-12T07:11:52.732Z,38784.00
2022-08-12T07:12:52.697Z,43296.00
2022-08-12T07:14:11.953Z,43168.00
2022-08-12T07:14:52.678Z,43776.00
2022-08-12T07:15:52.681Z,47616.00
2022-08-12T07:16:52.655Z,49696.00
2022-08-12T07:17:52.644Z,47200.00
2022-08-12T07:18:52.633Z,48352.00
2022-08-12T07:19:52.693Z,47872.00
2022-08-12T07:20:53.512Z,46400.00
2022-08-12T07:21:59.849Z,45696.00
2022-08-12T07:22:52.592Z,47648.00
2022-08-12T07:23:52.582Z,51456.00
2022-08-12T07:24:52.576Z,52928.00
2022-08-12T07:25:57.890Z,53856.00
2022-08-12T07:26:52.546Z,56288.00
2022-08-12T07:27:52.539Z,56928.00
2022-08-12T07:28:52.579Z,55232.00
2022-08-12T07:30:02.510Z,54400.00
2022-08-12T07:30:52.501Z,54496.00
2022-08-12T07:31:53.297Z,53824.00
2022-08-12T07:32:52.502Z,57216.00
2022-08-12T07:33:52.469Z,57472.00
2022-08-12T07:34:52.460Z,58240.00
2022-08-12T07:35:52.462Z,59296.00
2022-08-12T07:36:52.437Z,61152.00
2022-08-12T07:37:52.428Z,58976.00
2022-08-12T07:38:52.432Z,57920.00
2022-08-12T07:39:59.587Z,58912.00
2022-08-12T07:40:52.400Z,62080.00
2022-08-12T07:41:52.384Z,61536.00
2022-08-12T07:42:52.380Z,57952.00
2022-08-12T07:43:52.370Z,59360.00
2022-08-12T07:44:52.356Z,64352.00
2022-08-12T07:45:52.341Z,65056.00
2022-08-12T07:46:52.332Z,65312.00
2022-08-12T07:47:52.321Z,62336.00
2022-08-12T07:48:52.311Z,64992.00
2022-08-12T07:50:04.114Z,63008.00
2022-08-12T07:50:53.314Z,65280.00
2022-08-12T07:51:52.281Z,63456.00
2022-08-12T07:52:52.272Z,66400.00
2022-08-12T07:54:00.350Z,65760.00
2022-08-12T07:54:53.272Z,67584.00
2022-08-12T07:55:52.237Z,65376.00
2022-08-12T07:56:52.231Z,66208.00
2022-08-12T07:57:52.214Z,63936.00
2022-08-12T07:58:52.207Z,66848.00
2022-08-12T07:59:52.817Z,64192.00
2022-08-12T08:00:52.210Z,61984.00
2022-08-12T08:01:52.390Z,63744.00
2022-08-12T08:02:52.163Z,64160.00
2022-08-12T08:03:52.155Z,63552.00
2022-08-12T08:04:52.145Z,64256.00
2022-08-12T08:05:52.130Z,65888.00
2022-08-12T08:06:52.123Z,64640.00
2022-08-12T08:07:52.115Z,70176.00
2022-08-12T08:08:52.107Z,64416.00
2022-08-12T08:09:58.602Z,66432.00
2022-08-12T08:10:53.104Z,65536.00
2022-08-12T08:11:52.088Z,63904.00
2022-08-12T08:12:52.077Z,63840.00
2022-08-12T08:13:52.052Z,63136.00
2022-08-12T08:14:52.041Z,63776.00
2022-08-12T08:16:02.865Z,61504.00
2022-08-12T08:16:53.043Z,63744.00
2022-08-12T08:17:52.008Z,63808.00
2022-08-12T08:18:51.997Z,62176.00
2022-08-12T08:20:03.814Z,68352.00
2022-08-12T08:20:53.003Z,67872.00
2022-08-12T08:21:51.967Z,66336.00
2022-08-12T08:22:52.121Z,68544.00
2022-08-12T08:23:51.985Z,71808.00
2022-08-12T08:24:51.945Z,71456.00
2022-08-12T08:25:51.926Z,74880.00
2022-08-12T08:26:51.926Z,69440.00
2022-08-12T08:27:51.911Z,73344.00
2022-08-12T08:28:51.898Z,73024.00
2022-08-12T08:29:51.886Z,68864.00
2022-08-12T08:30:51.879Z,69440.00
2022-08-12T08:31:51.902Z,70496.00
2022-08-12T08:32:51.859Z,74496.00
2022-08-12T08:34:04.938Z,66528.00
2022-08-12T08:34:54.355Z,70944.00
2022-08-12T08:35:54.311Z,72928.00
2022-08-12T08:36:51.809Z,75008.00
2022-08-12T08:37:51.797Z,67744.00
2022-08-12T08:38:56.066Z,69600.00
2022-08-12T08:39:52.854Z,71168.00
2022-08-12T08:40:51.770Z,68640.00
2022-08-12T08:42:15.682Z,74944.00
2022-08-12T08:42:51.747Z,71616.00
2022-08-12T08:43:51.786Z,79520.00
2022-08-12T08:44:58.034Z,81920.00
2022-08-12T08:45:51.776Z,83424.00
2022-08-12T08:46:51.758Z,74528.00
2022-08-12T08:47:51.789Z,76672.00
2022-08-12T08:48:53.712Z,81728.00
2022-08-12T08:49:51.780Z,75552.00
2022-08-12T08:51:04.575Z,82016.00
2022-08-12T08:51:52.699Z,80352.00
2022-08-12T08:52:51.649Z,73056.00
2022-08-12T08:53:52.759Z,80704.00
2022-08-12T08:54:51.631Z,71520.00
2022-08-12T08:56:04.594Z,75168.00
2022-08-12T08:56:52.634Z,77600.00
2022-08-12T08:57:51.599Z,77344.00
2022-08-12T08:58:52.133Z,81376.00
2022-08-12T08:59:51.815Z,78816.00
2022-08-12T09:00:51.569Z,74880.00
2022-08-12T09:01:51.691Z,86496.00
2022-08-12T09:02:59.058Z,80288.00
2022-08-12T09:05:08.253Z,73664.00
2022-08-12T09:05:11.740Z,80384.00
2022-08-12T09:06:02.966Z,78048.00
2022-08-12T09:06:53.758Z,84224.00
2022-08-12T09:08:52.514Z,80064.00
2022-08-12T09:10:59.186Z,74464.00
2022-08-12T09:12:54.803Z,91072.00
2022-08-12T09:14:53.434Z,82912.00
2022-08-12T09:15:56.139Z,76448.00
2022-08-12T09:16:52.463Z,79872.00
2022-08-12T09:17:51.406Z,91808.00
2022-08-12T09:18:52.264Z,85120.00
2022-08-12T09:19:57.278Z,88128.00
2022-08-12T09:20:51.379Z,97120.00
2022-08-12T09:21:54.208Z,97312.00
2022-08-12T09:22:51.594Z,88288.00
2022-08-12T09:23:58.907Z,93664.00
2022-08-12T09:24:52.369Z,97760.00
2022-08-12T09:25:51.331Z,96704.00
2022-08-12T09:26:51.331Z,96320.00
2022-08-12T09:28:52.829Z,91200.00
2022-08-12T09:30:11.454Z,90784.00
2022-08-12T09:30:52.305Z,82816.00
2022-08-12T09:32:02.802Z,89920.00
2022-08-12T09:33:05.081Z,86720.00
2022-08-12T09:34:28.502Z,85728.00
2022-08-12T09:34:51.263Z,92544.00
2022-08-12T09:36:02.946Z,92256.00
2022-08-12T09:37:00.103Z,89728.00
2022-08-12T09:37:55.369Z,87584.00
2022-08-12T09:39:00.019Z,90016.00
2022-08-12T09:40:01.443Z,86112.00
2022-08-12T09:40:57.114Z,87104.00
2022-08-12T09:42:34.502Z,90944.00
2022-08-12T09:43:16.093Z,86752.00
2022-08-12T09:43:53.858Z,83296.00
2022-08-12T09:45:18.009Z,79040.00
2022-08-12T09:46:12.008Z,79136.00
2022-08-12T09:46:52.186Z,78624.00
2022-08-12T09:47:59.254Z,71168.00
2022-08-12T09:48:56.180Z,79168.00
2022-08-12T09:49:57.872Z,78912.00
2022-08-12T09:50:55.230Z,76192.00
2022-08-12T09:51:51.073Z,84096.00
2022-08-12T09:52:54.339Z,84160.00
2022-08-12T09:54:06.011Z,85248.00
2022-08-12T09:54:56.297Z,84032.00
2022-08-12T09:56:03.726Z,84832.00
2022-08-12T09:57:00.468Z,88096.00
2022-08-12T09:58:46.097Z,89248.00
2022-08-12T09:59:00.225Z,90752.00
2022-08-12T10:00:17.147Z,84256.00
2022-08-12T10:00:52.177Z,84256.00
2022-08-12T10:02:42.782Z,89024.00
2022-08-12T10:02:52.002Z,84480.00
2022-08-12T10:04:03.428Z,89408.00
2022-08-12T10:04:52.159Z,97952.00
2022-08-12T10:06:20.440Z,85600.00
2022-08-12T10:06:55.432Z,83776.00
2022-08-12T10:07:50.919Z,85792.00
2022-08-12T10:08:52.648Z,83008.00
2022-08-12T10:09:58.455Z,91584.00
2022-08-12T10:10:51.915Z,89056.00
2022-08-12T10:12:10.490Z,80928.00
2022-08-12T10:13:06.612Z,90240.00
2022-08-12T10:13:51.890Z,92960.00
2022-08-12T10:14:53.981Z,89792.00
2022-08-12T10:16:02.341Z,88704.00
2022-08-12T10:16:50.833Z,86656.00
2022-08-12T10:17:56.951Z,89632.00
2022-08-12T10:18:52.870Z,82048.00
2022-08-12T10:19:52.484Z,81824.00
2022-08-12T10:20:50.986Z,83840.00
2022-08-12T10:21:56.884Z,76096.00
2022-08-12T10:22:51.204Z,78528.00
2022-08-12T10:23:51.460Z,81280.00
2022-08-12T10:24:53.337Z,79552.00
2022-08-12T10:26:34.326Z,85536.00
2022-08-12T10:26:50.736Z,84896.00
2022-08-12T10:28:03.518Z,84576.00
2022-08-12T10:29:01.960Z,82272.00
2022-08-12T10:30:02.858Z,82496.00
2022-08-12T10:30:58.105Z,75840.00
2022-08-12T10:32:20.654Z,72960.00
2022-08-12T10:32:56.945Z,78912.00
2022-08-12T10:34:05.005Z,79168.00
2022-08-12T10:34:53.208Z,77408.00
2022-08-12T10:35:52.674Z,76992.00
2022-08-12T10:36:51.878Z,85600.00
2022-08-12T10:38:37.713Z,89440.00
2022-08-12T10:38:50.628Z,90048.00
2022-08-12T10:40:00.760Z,79168.00
2022-08-12T10:40:51.685Z,75392.00
2022-08-12T10:41:57.063Z,87744.00
2022-08-12T10:42:50.595Z,85664.00
2022-08-12T10:43:54.942Z,83712.00
2022-08-12T10:44:50.849Z,86144.00
2022-08-12T10:45:50.563Z,86368.00
2022-08-12T10:46:50.555Z,93664.00
2022-08-12T10:48:20.643Z,96480.00
2022-08-12T10:48:58.073Z,84352.00
2022-08-12T10:50:03.314Z,83648.00
2022-08-12T10:51:00.321Z,94848.00
2022-08-12T10:52:33.070Z,89632.00
2022-08-12T10:52:52.381Z,87072.00
2022-08-12T10:53:52.656Z,95936.00
2022-08-12T10:54:50.484Z,97024.00
2022-08-12T10:55:56.136Z,93248.00
2022-08-12T10:56:51.481Z,87904.00
2022-08-12T10:58:15.209Z,94208.00
2022-08-12T10:58:50.434Z,96288.00
2022-08-12T11:00:31.745Z,80672.00
2022-08-12T11:01:25.912Z,89472.00
2022-08-12T11:04:20.137Z,95104.00
2022-08-12T11:04:22.740Z,79744.00
2022-08-12T11:04:24.442Z,83200.00
2022-08-12T11:04:52.189Z,96480.00
2022-08-12T11:07:07.184Z,82432.00
2022-08-12T11:07:07.468Z,91872.00
2022-08-12T11:08:38.824Z,83200.00
2022-08-12T11:08:51.810Z,91072.00
2022-08-12T11:10:01.022Z,97248.00
2022-08-12T11:10:50.595Z,90080.00
2022-08-12T11:12:35.136Z,85952.00
2022-08-12T11:12:59.175Z,87104.00
2022-08-12T11:13:50.300Z,91200.00
2022-08-12T11:14:51.386Z,86176.00
2022-08-12T11:16:03.659Z,82496.00
2022-08-12T11:17:34.981Z,78368.00
2022-08-12T11:17:55.623Z,89056.00
2022-08-12T11:18:55.271Z,92640.00
2022-08-12T11:19:50.346Z,95808.00
2022-08-12T11:20:52.209Z,96352.00
2022-08-12T11:21:58.352Z,91808.00
2022-08-12T11:22:58.754Z,89216.00
2022-08-12T11:23:53.535Z,89344.00
2022-08-12T11:24:51.644Z,84032.00
2022-08-12T11:25:58.246Z,91360.00
2022-08-12T11:26:51.237Z,95488.00
2022-08-12T11:27:51.162Z,88576.00
2022-08-12T11:28:59.375Z,86336.00
2022-08-12T11:30:03.704Z,93824.00
2022-08-12T11:30:52.027Z,102912.00
2022-08-12T11:32:02.060Z,87744.00
2022-08-12T11:32:51.137Z,77152.00
2022-08-12T11:34:06.421Z,96832.00
2022-08-12T11:34:54.622Z,99552.00
2022-08-12T11:35:50.689Z,77024.00
2022-08-12T11:36:53.419Z,91424.00
2022-08-12T11:37:59.260Z,101792.00
2022-08-12T11:38:51.463Z,78240.00
2022-08-12T11:40:51.033Z,97024.00
2022-08-12T11:41:50.002Z,87712.00
2022-08-12T11:42:50.218Z,82272.00
2022-08-12T11:43:58.862Z,79104.00
2022-08-12T11:44:51.145Z,92128.00
2022-08-12T11:45:53.354Z,93280.00
2022-08-12T11:46:53.310Z,84800.00
2022-08-12T11:47:50.120Z,82880.00
2022-08-12T11:48:51.074Z,76864.00
2022-08-12T11:49:51.999Z,85632.00
2022-08-12T11:50:50.016Z,89664.00
2022-08-12T11:51:57.498Z,76256.00
2022-08-12T11:52:55.257Z,86880.00
2022-08-12T11:53:58.257Z,88704.00
2022-08-12T11:54:50.935Z,82400.00
2022-08-12T11:55:49.879Z,84032.00
2022-08-12T11:56:59.431Z,84672.00
2022-08-12T11:58:07.613Z,87232.00
2022-08-12T12:01:57.831Z,81024.00
2022-08-12T12:02:00.732Z,84768.00
2022-08-12T12:02:49.857Z,79456.00
2022-08-12T12:03:49.866Z,78624.00
2022-08-12T12:04:52.622Z,85024.00
2022-08-12T12:05:49.848Z,78912.00
2022-08-12T12:06:53.140Z,75264.00
2022-08-12T12:08:37.446Z,89184.00
2022-08-12T12:08:52.834Z,83264.00
2022-08-12T12:09:53.589Z,84544.00
2022-08-12T12:10:49.761Z,88992.00
2022-08-12T12:11:49.751Z,79712.00
2022-08-12T12:12:50.691Z,81696.00
2022-08-12T12:14:07.271Z,88320.00
2022-08-12T12:14:54.175Z,85440.00
2022-08-12T12:15:49.703Z,82176.00
2022-08-12T12:16:50.018Z,79264.00
2022-08-12T12:17:49.687Z,78144.00
2022-08-12T12:18:50.736Z,75104.00
2022-08-12T12:19:49.690Z,72000.00
2022-08-12T12:20:49.666Z,78624.00
2022-08-12T12:21:49.754Z,82048.00
2022-08-12T12:22:49.648Z,77824.00
2022-08-12T12:23:49.642Z,74720.00
2022-08-12T12:24:49.627Z,79616.00